KAKO/AKO METAR and TAF weather

Enter ICAO airport designator
Station Type Date Time Source
KAKO METAR 2022/01/27 22:53 UTC NOAA

KAKO 272253Z AUTO 31012KT 10SM CLR M01/M08 A3037 RMK AO2 SLP325 T10111078


Station Type Date Time Source
KAKO Decoded METAR 2022/01/27 22:53 UTC NOAA

COLORADO PLAINS REGIONAL, CO, United States (KAKO) 40-10N 103-13W 1421M
Jan 27, 2022 - 05:53 PM EST / 2022.01.27 2253 UTC
Wind: from the NW (310 degrees) at 14 MPH (12 KT):0
Visibility: 10 mile(s):0
Sky conditions: clear
Temperature: 30.0 F (-1.1 C)
Windchill: 19 F (-7 C):1
Dew Point: 18.0 F (-7.8 C)
Relative Humidity: 60%
Pressure (altimeter): 30.37 in. Hg (1028 hPa)
ob: KAKO 272253Z AUTO 31012KT 10SM CLR M01/M08 A3037 RMK AO2 SLP325 T10111078
cycle: 23

Station Type Date Time Source
KAKO TAF UTC NOAA

Error!

Example: see airport list